sensor_id;sensor_type;location;lat;lon;timestamp;P1;durP1;ratioP1;P2;durP2;ratioP2
3133;SDS011;1577;49.912;10.924;2023-11-19T00:02:22;4.10;;;2.60;;
3133;SDS011;1577;49.912;10.924;2023-11-19T00:04:48;4.13;;;2.60;;
3133;SDS011;1577;49.912;10.924;2023-11-19T00:07:14;4.37;;;3.17;;
3133;SDS011;1577;49.912;10.924;2023-11-19T00:09:40;3.97;;;3.23;;
3133;SDS011;1577;49.912;10.924;2023-11-19T00:12:06;3.60;;;3.30;;
3133;SDS011;1577;49.912;10.924;2023-11-19T00:14:32;2.93;;;2.70;;
3133;SDS011;1577;49.912;10.924;2023-11-19T00:16:59;4.80;;;3.50;;
3133;SDS011;1577;49.912;10.924;2023-11-19T00:19:25;3.87;;;3.47;;
3133;SDS011;1577;49.912;10.924;2023-11-19T00:21:51;4.20;;;3.70;;
3133;SDS011;1577;49.912;10.924;2023-11-19T00:24:17;4.03;;;3.30;;
3133;SDS011;1577;49.912;10.924;2023-11-19T00:26:43;4.93;;;3.77;;
3133;SDS011;1577;49.912;10.924;2023-11-19T00:29:09;3.63;;;3.30;;
3133;SDS011;1577;49.912;10.924;2023-11-19T00:31:35;4.20;;;3.80;;
3133;SDS011;1577;49.912;10.924;2023-11-19T00:34:00;4.37;;;3.20;;
3133;SDS011;1577;49.912;10.924;2023-11-19T00:36:27;4.27;;;3.37;;
3133;SDS011;1577;49.912;10.924;2023-11-19T00:38:53;4.60;;;3.83;;
3133;SDS011;1577;49.912;10.924;2023-11-19T00:41:19;3.50;;;3.20;;
3133;SDS011;1577;49.912;10.924;2023-11-19T00:43:45;5.33;;;3.63;;
3133;SDS011;1577;49.912;10.924;2023-11-19T00:46:10;5.23;;;3.50;;
3133;SDS011;1577;49.912;10.924;2023-11-19T00:48:36;3.40;;;2.77;;
3133;SDS011;1577;49.912;10.924;2023-11-19T00:51:02;3.17;;;2.90;;
3133;SDS011;1577;49.912;10.924;2023-11-19T00:53:29;3.40;;;3.00;;
3133;SDS011;1577;49.912;10.924;2023-11-19T00:55:55;3.47;;;3.17;;
3133;SDS011;1577;49.912;10.924;2023-11-19T00:58:20;3.80;;;3.50;;
3133;SDS011;1577;49.912;10.924;2023-11-19T01:00:46;5.87;;;4.37;;
3133;SDS011;1577;49.912;10.924;2023-11-19T01:03:12;6.53;;;3.13;;
3133;SDS011;1577;49.912;10.924;2023-11-19T01:05:37;3.50;;;3.17;;
3133;SDS011;1577;49.912;10.924;2023-11-19T01:08:04;3.30;;;3.00;;
3133;SDS011;1577;49.912;10.924;2023-11-19T01:10:30;4.10;;;2.93;;
3133;SDS011;1577;49.912;10.924;2023-11-19T01:12:56;3.10;;;2.80;;
3133;SDS011;1577;49.912;10.924;2023-11-19T01:15:22;3.80;;;3.30;;
3133;SDS011;1577;49.912;10.924;2023-11-19T01:17:48;6.10;;;3.60;;
3133;SDS011;1577;49.912;10.924;2023-11-19T01:20:13;3.77;;;3.10;;
3133;SDS011;1577;49.912;10.924;2023-11-19T01:22:39;3.80;;;3.40;;
3133;SDS011;1577;49.912;10.924;2023-11-19T01:25:05;4.00;;;3.60;;
3133;SDS011;1577;49.912;10.924;2023-11-19T01:27:31;4.30;;;3.60;;
3133;SDS011;1577;49.912;10.924;2023-11-19T01:29:59;5.00;;;3.30;;
3133;SDS011;1577;49.912;10.924;2023-11-19T01:32:27;4.00;;;3.53;;
3133;SDS011;1577;49.912;10.924;2023-11-19T01:34:52;4.07;;;3.40;;
3133;SDS011;1577;49.912;10.924;2023-11-19T01:37:18;5.23;;;3.63;;
3133;SDS011;1577;49.912;10.924;2023-11-19T01:39:43;4.53;;;3.60;;
3133;SDS011;1577;49.912;10.924;2023-11-19T01:42:10;3.90;;;3.10;;
3133;SDS011;1577;49.912;10.924;2023-11-19T01:44:37;4.53;;;4.10;;
3133;SDS011;1577;49.912;10.924;2023-11-19T01:47:03;4.40;;;3.70;;
3133;SDS011;1577;49.912;10.924;2023-11-19T01:49:29;4.60;;;3.73;;
3133;SDS011;1577;49.912;10.924;2023-11-19T01:51:57;4.27;;;3.57;;
3133;SDS011;1577;49.912;10.924;2023-11-19T01:54:23;5.20;;;3.50;;
3133;SDS011;1577;49.912;10.924;2023-11-19T01:56:49;3.73;;;3.30;;
3133;SDS011;1577;49.912;10.924;2023-11-19T01:59:15;4.53;;;3.00;;
3133;SDS011;1577;49.912;10.924;2023-11-19T02:01:41;3.90;;;3.50;;
3133;SDS011;1577;49.912;10.924;2023-11-19T02:04:08;4.50;;;3.50;;
3133;SDS011;1577;49.912;10.924;2023-11-19T02:06:34;5.57;;;3.70;;
3133;SDS011;1577;49.912;10.924;2023-11-19T02:09:02;3.70;;;3.10;;
3133;SDS011;1577;49.912;10.924;2023-11-19T02:11:32;4.47;;;3.80;;
3133;SDS011;1577;49.912;10.924;2023-11-19T02:13:59;3.80;;;3.50;;
3133;SDS011;1577;49.912;10.924;2023-11-19T02:16:26;4.47;;;3.80;;
3133;SDS011;1577;49.912;10.924;2023-11-19T02:18:51;4.47;;;3.43;;
3133;SDS011;1577;49.912;10.924;2023-11-19T02:21:17;3.90;;;3.27;;
3133;SDS011;1577;49.912;10.924;2023-11-19T02:23:43;4.27;;;3.63;;
3133;SDS011;1577;49.912;10.924;2023-11-19T02:29:04;4.70;;;3.40;;
3133;SDS011;1577;49.912;10.924;2023-11-19T02:31:31;4.67;;;3.67;;
3133;SDS011;1577;49.912;10.924;2023-11-19T02:33:57;3.80;;;3.40;;
3133;SDS011;1577;49.912;10.924;2023-11-19T02:36:25;3.30;;;2.97;;
3133;SDS011;1577;49.912;10.924;2023-11-19T02:38:50;3.37;;;2.80;;
3133;SDS011;1577;49.912;10.924;2023-11-19T02:41:16;3.17;;;2.87;;
3133;SDS011;1577;49.912;10.924;2023-11-19T02:43:41;5.73;;;3.50;;
3133;SDS011;1577;49.912;10.924;2023-11-19T02:46:07;3.90;;;3.13;;
3133;SDS011;1577;49.912;10.924;2023-11-19T02:48:33;4.53;;;3.13;;
3133;SDS011;1577;49.912;10.924;2023-11-19T02:51:02;3.60;;;3.20;;
3133;SDS011;1577;49.912;10.924;2023-11-19T02:53:32;4.50;;;3.67;;
3133;SDS011;1577;49.912;10.924;2023-11-19T02:55:57;3.90;;;3.43;;
3133;SDS011;1577;49.912;10.924;2023-11-19T02:58:45;3.90;;;3.50;;
3133;SDS011;1577;49.912;10.924;2023-11-19T03:01:11;4.13;;;3.73;;
3133;SDS011;1577;49.912;10.924;2023-11-19T03:03:47;3.93;;;3.53;;
3133;SDS011;1577;49.912;10.924;2023-11-19T03:06:18;4.73;;;3.63;;
3133;SDS011;1577;49.912;10.924;2023-11-19T03:08:44;6.93;;;4.10;;
3133;SDS011;1577;49.912;10.924;2023-11-19T03:11:10;4.10;;;3.67;;
3133;SDS011;1577;49.912;10.924;2023-11-19T03:13:35;3.67;;;3.33;;
3133;SDS011;1577;49.912;10.924;2023-11-19T03:16:01;4.43;;;3.30;;
3133;SDS011;1577;49.912;10.924;2023-11-19T03:18:27;4.87;;;4.37;;
3133;SDS011;1577;49.912;10.924;2023-11-19T03:20:53;5.10;;;4.30;;
3133;SDS011;1577;49.912;10.924;2023-11-19T03:23:19;4.30;;;3.60;;
3133;SDS011;1577;49.912;10.924;2023-11-19T03:25:44;4.43;;;4.00;;
3133;SDS011;1577;49.912;10.924;2023-11-19T03:28:10;3.70;;;3.33;;
3133;SDS011;1577;49.912;10.924;2023-11-19T03:30:36;4.80;;;4.20;;
3133;SDS011;1577;49.912;10.924;2023-11-19T03:33:01;4.37;;;3.97;;
3133;SDS011;1577;49.912;10.924;2023-11-19T03:35:27;4.80;;;4.13;;
3133;SDS011;1577;49.912;10.924;2023-11-19T03:37:54;4.00;;;3.60;;
3133;SDS011;1577;49.912;10.924;2023-11-19T03:40:19;4.20;;;3.50;;
3133;SDS011;1577;49.912;10.924;2023-11-19T03:42:45;4.00;;;3.33;;
3133;SDS011;1577;49.912;10.924;2023-11-19T03:45:11;3.77;;;3.43;;
3133;SDS011;1577;49.912;10.924;2023-11-19T03:47:37;4.37;;;3.97;;
3133;SDS011;1577;49.912;10.924;2023-11-19T03:50:04;6.97;;;4.07;;
3133;SDS011;1577;49.912;10.924;2023-11-19T03:52:30;4.00;;;3.20;;
3133;SDS011;1577;49.912;10.924;2023-11-19T03:54:56;4.03;;;3.33;;
3133;SDS011;1577;49.912;10.924;2023-11-19T03:57:22;3.60;;;3.20;;
3133;SDS011;1577;49.912;10.924;2023-11-19T03:59:48;5.07;;;3.97;;
3133;SDS011;1577;49.912;10.924;2023-11-19T04:02:14;3.93;;;3.53;;
3133;SDS011;1577;49.912;10.924;2023-11-19T04:04:40;4.10;;;3.70;;
3133;SDS011;1577;49.912;10.924;2023-11-19T04:07:06;4.70;;;3.70;;
3133;SDS011;1577;49.912;10.924;2023-11-19T04:09:31;5.53;;;4.07;;
3133;SDS011;1577;49.912;10.924;2023-11-19T04:12:02;4.37;;;3.97;;
3133;SDS011;1577;49.912;10.924;2023-11-19T04:14:28;6.20;;;3.90;;
3133;SDS011;1577;49.912;10.924;2023-11-19T04:16:54;4.13;;;3.73;;
3133;SDS011;1577;49.912;10.924;2023-11-19T04:19:20;4.77;;;3.80;;
3133;SDS011;1577;49.912;10.924;2023-11-19T04:21:45;4.30;;;3.40;;
3133;SDS011;1577;49.912;10.924;2023-11-19T04:24:11;4.90;;;3.47;;
3133;SDS011;1577;49.912;10.924;2023-11-19T04:26:44;3.60;;;3.10;;
3133;SDS011;1577;49.912;10.924;2023-11-19T04:29:14;5.00;;;3.37;;
3133;SDS011;1577;49.912;10.924;2023-11-19T04:31:41;3.53;;;3.03;;
3133;SDS011;1577;49.912;10.924;2023-11-19T04:34:07;4.30;;;3.47;;
3133;SDS011;1577;49.912;10.924;2023-11-19T04:36:33;7.33;;;3.67;;
3133;SDS011;1577;49.912;10.924;2023-11-19T04:38:59;5.07;;;4.07;;
3133;SDS011;1577;49.912;10.924;2023-11-19T04:41:25;5.00;;;4.43;;
3133;SDS011;1577;49.912;10.924;2023-11-19T04:43:53;4.60;;;3.90;;
3133;SDS011;1577;49.912;10.924;2023-11-19T04:46:18;5.47;;;4.63;;
3133;SDS011;1577;49.912;10.924;2023-11-19T04:48:44;4.83;;;4.23;;
3133;SDS011;1577;49.912;10.924;2023-11-19T04:51:10;5.30;;;4.13;;
3133;SDS011;1577;49.912;10.924;2023-11-19T04:53:35;5.27;;;4.20;;
3133;SDS011;1577;49.912;10.924;2023-11-19T04:56:06;4.60;;;3.77;;
3133;SDS011;1577;49.912;10.924;2023-11-19T04:58:35;5.40;;;3.70;;
3133;SDS011;1577;49.912;10.924;2023-11-19T05:01:02;4.37;;;3.97;;
3133;SDS011;1577;49.912;10.924;2023-11-19T05:03:31;4.80;;;4.30;;
3133;SDS011;1577;49.912;10.924;2023-11-19T05:05:57;6.20;;;4.33;;
3133;SDS011;1577;49.912;10.924;2023-11-19T05:08:23;4.73;;;4.00;;
3133;SDS011;1577;49.912;10.924;2023-11-19T05:10:49;4.03;;;3.30;;
3133;SDS011;1577;49.912;10.924;2023-11-19T05:13:14;6.10;;;3.93;;
3133;SDS011;1577;49.912;10.924;2023-11-19T05:15:40;5.50;;;3.70;;
3133;SDS011;1577;49.912;10.924;2023-11-19T05:18:06;4.47;;;3.90;;
3133;SDS011;1577;49.912;10.924;2023-11-19T05:20:31;5.90;;;4.20;;
3133;SDS011;1577;49.912;10.924;2023-11-19T05:22:57;5.23;;;3.53;;
3133;SDS011;1577;49.912;10.924;2023-11-19T05:25:25;4.60;;;3.70;;
3133;SDS011;1577;49.912;10.924;2023-11-19T05:27:51;5.33;;;4.07;;
3133;SDS011;1577;49.912;10.924;2023-11-19T05:30:17;5.57;;;4.60;;
3133;SDS011;1577;49.912;10.924;2023-11-19T05:32:43;4.47;;;4.07;;
3133;SDS011;1577;49.912;10.924;2023-11-19T05:35:08;4.90;;;3.80;;
3133;SDS011;1577;49.912;10.924;2023-11-19T05:37:34;5.33;;;4.50;;
3133;SDS011;1577;49.912;10.924;2023-11-19T05:40:00;7.60;;;4.30;;
3133;SDS011;1577;49.912;10.924;2023-11-19T05:42:28;5.13;;;4.10;;
3133;SDS011;1577;49.912;10.924;2023-11-19T05:44:53;4.27;;;3.53;;
3133;SDS011;1577;49.912;10.924;2023-11-19T05:47:19;6.30;;;4.60;;
3133;SDS011;1577;49.912;10.924;2023-11-19T05:49:44;5.57;;;4.33;;
3133;SDS011;1577;49.912;10.924;2023-11-19T05:52:10;5.63;;;4.43;;
3133;SDS011;1577;49.912;10.924;2023-11-19T05:54:37;5.00;;;4.23;;
3133;SDS011;1577;49.912;10.924;2023-11-19T05:57:04;4.73;;;4.07;;
3133;SDS011;1577;49.912;10.924;2023-11-19T05:59:30;4.63;;;4.10;;
3133;SDS011;1577;49.912;10.924;2023-11-19T06:01:58;5.87;;;4.43;;
3133;SDS011;1577;49.912;10.924;2023-11-19T06:04:23;8.10;;;4.50;;
3133;SDS011;1577;49.912;10.924;2023-11-19T06:06:49;5.03;;;4.40;;
3133;SDS011;1577;49.912;10.924;2023-11-19T06:09:14;6.70;;;4.73;;
3133;SDS011;1577;49.912;10.924;2023-11-19T06:11:40;5.73;;;4.50;;
3133;SDS011;1577;49.912;10.924;2023-11-19T06:14:06;5.87;;;4.37;;
3133;SDS011;1577;49.912;10.924;2023-11-19T06:16:32;4.77;;;3.93;;
3133;SDS011;1577;49.912;10.924;2023-11-19T06:18:57;4.73;;;4.03;;
3133;SDS011;1577;49.912;10.924;2023-11-19T06:21:23;5.00;;;4.00;;
3133;SDS011;1577;49.912;10.924;2023-11-19T06:23:50;5.40;;;4.23;;
3133;SDS011;1577;49.912;10.924;2023-11-19T06:26:17;6.00;;;4.63;;
3133;SDS011;1577;49.912;10.924;2023-11-19T06:28:43;4.70;;;3.70;;
3133;SDS011;1577;49.912;10.924;2023-11-19T06:31:09;5.87;;;4.53;;
3133;SDS011;1577;49.912;10.924;2023-11-19T06:33:35;5.97;;;4.67;;
3133;SDS011;1577;49.912;10.924;2023-11-19T06:36:01;5.50;;;4.73;;
3133;SDS011;1577;49.912;10.924;2023-11-19T06:38:26;5.23;;;4.70;;
3133;SDS011;1577;49.912;10.924;2023-11-19T06:40:52;6.57;;;4.50;;
3133;SDS011;1577;49.912;10.924;2023-11-19T06:43:17;9.20;;;5.33;;
3133;SDS011;1577;49.912;10.924;2023-11-19T06:45:43;6.90;;;4.83;;
3133;SDS011;1577;49.912;10.924;2023-11-19T06:48:08;6.90;;;5.17;;
3133;SDS011;1577;49.912;10.924;2023-11-19T06:50:34;7.30;;;4.63;;
3133;SDS011;1577;49.912;10.924;2023-11-19T06:53:00;7.00;;;4.70;;
3133;SDS011;1577;49.912;10.924;2023-11-19T06:55:26;6.37;;;5.30;;
3133;SDS011;1577;49.912;10.924;2023-11-19T06:57:52;7.20;;;4.80;;
3133;SDS011;1577;49.912;10.924;2023-11-19T07:00:17;7.20;;;4.60;;
3133;SDS011;1577;49.912;10.924;2023-11-19T07:02:43;7.23;;;4.70;;
3133;SDS011;1577;49.912;10.924;2023-11-19T07:05:09;6.57;;;4.73;;
3133;SDS011;1577;49.912;10.924;2023-11-19T07:07:35;6.70;;;4.97;;
3133;SDS011;1577;49.912;10.924;2023-11-19T07:10:01;6.50;;;4.90;;
3133;SDS011;1577;49.912;10.924;2023-11-19T07:12:28;5.90;;;4.70;;
3133;SDS011;1577;49.912;10.924;2023-11-19T07:14:54;5.70;;;4.20;;
3133;SDS011;1577;49.912;10.924;2023-11-19T07:17:20;6.57;;;5.07;;
3133;SDS011;1577;49.912;10.924;2023-11-19T07:19:51;7.30;;;5.20;;
3133;SDS011;1577;49.912;10.924;2023-11-19T07:22:17;5.70;;;4.70;;
3133;SDS011;1577;49.912;10.924;2023-11-19T07:24:43;7.17;;;4.70;;
3133;SDS011;1577;49.912;10.924;2023-11-19T07:27:08;7.30;;;4.60;;
3133;SDS011;1577;49.912;10.924;2023-11-19T07:29:34;6.17;;;4.77;;
3133;SDS011;1577;49.912;10.924;2023-11-19T07:32:00;5.97;;;4.53;;
3133;SDS011;1577;49.912;10.924;2023-11-19T07:34:30;6.10;;;4.47;;
3133;SDS011;1577;49.912;10.924;2023-11-19T07:36:55;7.63;;;4.97;;
3133;SDS011;1577;49.912;10.924;2023-11-19T07:39:27;5.67;;;4.77;;
3133;SDS011;1577;49.912;10.924;2023-11-19T07:41:52;5.40;;;4.10;;
3133;SDS011;1577;49.912;10.924;2023-11-19T07:44:19;6.90;;;3.73;;
3133;SDS011;1577;49.912;10.924;2023-11-19T07:46:46;4.90;;;3.67;;
3133;SDS011;1577;49.912;10.924;2023-11-19T07:49:13;5.53;;;4.33;;
3133;SDS011;1577;49.912;10.924;2023-11-19T07:51:38;5.20;;;4.33;;
3133;SDS011;1577;49.912;10.924;2023-11-19T07:54:04;3.30;;;3.00;;
3133;SDS011;1577;49.912;10.924;2023-11-19T07:56:31;4.20;;;3.30;;
3133;SDS011;1577;49.912;10.924;2023-11-19T07:58:59;4.63;;;3.50;;
3133;SDS011;1577;49.912;10.924;2023-11-19T08:01:25;3.50;;;3.00;;
3133;SDS011;1577;49.912;10.924;2023-11-19T08:03:50;7.70;;;3.40;;
3133;SDS011;1577;49.912;10.924;2023-11-19T08:06:16;4.60;;;3.10;;
3133;SDS011;1577;49.912;10.924;2023-11-19T08:08:41;5.27;;;3.30;;
3133;SDS011;1577;49.912;10.924;2023-11-19T08:11:07;5.80;;;3.43;;
3133;SDS011;1577;49.912;10.924;2023-11-19T08:13:33;4.10;;;2.50;;
3133;SDS011;1577;49.912;10.924;2023-11-19T08:15:59;4.10;;;3.00;;
3133;SDS011;1577;49.912;10.924;2023-11-19T08:18:24;3.10;;;2.70;;
3133;SDS011;1577;49.912;10.924;2023-11-19T08:20:50;2.93;;;2.33;;
3133;SDS011;1577;49.912;10.924;2023-11-19T08:23:19;4.00;;;2.50;;
3133;SDS011;1577;49.912;10.924;2023-11-19T08:25:57;4.83;;;2.90;;
3133;SDS011;1577;49.912;10.924;2023-11-19T08:28:22;5.73;;;3.43;;
3133;SDS011;1577;49.912;10.924;2023-11-19T08:30:48;4.53;;;2.57;;
3133;SDS011;1577;49.912;10.924;2023-11-19T08:33:16;3.00;;;2.70;;
3133;SDS011;1577;49.912;10.924;2023-11-19T08:35:42;4.53;;;3.17;;
3133;SDS011;1577;49.912;10.924;2023-11-19T08:38:08;4.50;;;2.80;;
3133;SDS011;1577;49.912;10.924;2023-11-19T08:40:33;3.80;;;2.90;;
3133;SDS011;1577;49.912;10.924;2023-11-19T08:42:59;3.87;;;2.80;;
3133;SDS011;1577;49.912;10.924;2023-11-19T08:45:25;3.60;;;3.17;;
3133;SDS011;1577;49.912;10.924;2023-11-19T08:47:50;3.90;;;2.80;;
3133;SDS011;1577;49.912;10.924;2023-11-19T08:50:16;8.70;;;6.73;;
3133;SDS011;1577;49.912;10.924;2023-11-19T08:52:42;4.97;;;2.63;;
3133;SDS011;1577;49.912;10.924;2023-11-19T08:55:07;3.10;;;2.80;;
3133;SDS011;1577;49.912;10.924;2023-11-19T08:57:34;4.20;;;3.80;;
3133;SDS011;1577;49.912;10.924;2023-11-19T09:00:00;3.33;;;2.90;;
3133;SDS011;1577;49.912;10.924;2023-11-19T09:02:26;3.60;;;2.60;;
3133;SDS011;1577;49.912;10.924;2023-11-19T09:04:52;3.10;;;2.80;;
3133;SDS011;1577;49.912;10.924;2023-11-19T09:07:17;3.77;;;2.73;;
3133;SDS011;1577;49.912;10.924;2023-11-19T09:09:43;2.67;;;2.43;;
3133;SDS011;1577;49.912;10.924;2023-11-19T09:12:08;2.87;;;2.60;;
3133;SDS011;1577;49.912;10.924;2023-11-19T09:14:34;2.47;;;2.27;;
3133;SDS011;1577;49.912;10.924;2023-11-19T09:16:59;2.63;;;2.40;;
3133;SDS011;1577;49.912;10.924;2023-11-19T09:19:25;3.60;;;2.20;;
3133;SDS011;1577;49.912;10.924;2023-11-19T09:21:51;4.30;;;2.83;;
3133;SDS011;1577;49.912;10.924;2023-11-19T09:24:18;13.97;;;8.17;;
3133;SDS011;1577;49.912;10.924;2023-11-19T09:26:43;13.60;;;9.97;;
3133;SDS011;1577;49.912;10.924;2023-11-19T09:29:09;5.57;;;4.97;;
3133;SDS011;1577;49.912;10.924;2023-11-19T09:31:35;9.30;;;5.93;;
3133;SDS011;1577;49.912;10.924;2023-11-19T09:34:03;6.60;;;5.03;;
3133;SDS011;1577;49.912;10.924;2023-11-19T09:36:29;6.37;;;3.73;;
3133;SDS011;1577;49.912;10.924;2023-11-19T09:38:55;2.70;;;2.47;;
3133;SDS011;1577;49.912;10.924;2023-11-19T09:41:20;4.63;;;3.57;;
3133;SDS011;1577;49.912;10.924;2023-11-19T09:43:46;6.93;;;4.70;;
3133;SDS011;1577;49.912;10.924;2023-11-19T09:46:15;6.67;;;4.50;;
3133;SDS011;1577;49.912;10.924;2023-11-19T09:48:41;4.03;;;1.93;;
3133;SDS011;1577;49.912;10.924;2023-11-19T09:51:08;8.97;;;5.03;;
3133;SDS011;1577;49.912;10.924;2023-11-19T09:53:35;3.67;;;2.70;;
3133;SDS011;1577;49.912;10.924;2023-11-19T09:56:02;2.10;;;1.63;;
3133;SDS011;1577;49.912;10.924;2023-11-19T09:58:29;3.70;;;2.00;;
3133;SDS011;1577;49.912;10.924;2023-11-19T10:00:56;6.50;;;3.90;;
3133;SDS011;1577;49.912;10.924;2023-11-19T10:03:24;7.10;;;4.80;;
3133;SDS011;1577;49.912;10.924;2023-11-19T10:05:51;4.60;;;3.53;;
3133;SDS011;1577;49.912;10.924;2023-11-19T10:08:18;4.57;;;3.30;;
3133;SDS011;1577;49.912;10.924;2023-11-19T10:10:44;4.60;;;3.13;;
3133;SDS011;1577;49.912;10.924;2023-11-19T10:13:09;5.53;;;3.53;;
3133;SDS011;1577;49.912;10.924;2023-11-19T10:15:36;3.07;;;2.77;;
3133;SDS011;1577;49.912;10.924;2023-11-19T10:18:02;3.93;;;2.43;;
3133;SDS011;1577;49.912;10.924;2023-11-19T10:20:34;2.17;;;1.57;;
3133;SDS011;1577;49.912;10.924;2023-11-19T10:23:05;2.13;;;1.87;;
3133;SDS011;1577;49.912;10.924;2023-11-19T10:25:31;1.73;;;1.40;;
3133;SDS011;1577;49.912;10.924;2023-11-19T10:27:58;2.07;;;1.60;;
3133;SDS011;1577;49.912;10.924;2023-11-19T10:30:25;2.60;;;1.63;;
3133;SDS011;1577;49.912;10.924;2023-11-19T10:33:14;1.40;;;1.00;;
3133;SDS011;1577;49.912;10.924;2023-11-19T10:35:55;1.60;;;1.30;;
3133;SDS011;1577;49.912;10.924;2023-11-19T10:38:21;2.73;;;1.80;;
3133;SDS011;1577;49.912;10.924;2023-11-19T10:40:48;2.30;;;1.87;;
3133;SDS011;1577;49.912;10.924;2023-11-19T10:43:14;3.17;;;2.03;;
3133;SDS011;1577;49.912;10.924;2023-11-19T10:45:40;9.40;;;4.63;;
3133;SDS011;1577;49.912;10.924;2023-11-19T10:48:06;4.13;;;2.93;;
3133;SDS011;1577;49.912;10.924;2023-11-19T10:50:35;3.57;;;2.60;;
3133;SDS011;1577;49.912;10.924;2023-11-19T10:53:02;4.80;;;2.53;;
3133;SDS011;1577;49.912;10.924;2023-11-19T10:55:29;3.03;;;2.00;;
3133;SDS011;1577;49.912;10.924;2023-11-19T10:57:59;2.60;;;1.50;;
3133;SDS011;1577;49.912;10.924;2023-11-19T11:00:30;3.07;;;1.50;;
3133;SDS011;1577;49.912;10.924;2023-11-19T11:03:21;1.83;;;1.07;;
3133;SDS011;1577;49.912;10.924;2023-11-19T11:05:50;3.73;;;1.60;;
3133;SDS011;1577;49.912;10.924;2023-11-19T11:08:17;6.40;;;1.00;;
3133;SDS011;1577;49.912;10.924;2023-11-19T11:10:55;3.33;;;0.93;;
3133;SDS011;1577;49.912;10.924;2023-11-19T11:13:22;2.43;;;0.90;;
3133;SDS011;1577;49.912;10.924;2023-11-19T11:15:49;5.43;;;2.10;;
3133;SDS011;1577;49.912;10.924;2023-11-19T11:18:16;2.30;;;0.93;;
3133;SDS011;1577;49.912;10.924;2023-11-19T11:20:46;3.90;;;1.30;;
3133;SDS011;1577;49.912;10.924;2023-11-19T11:28:46;2.60;;;1.10;;
3133;SDS011;1577;49.912;10.924;2023-11-19T11:39:35;2.23;;;0.93;;
3133;SDS011;1577;49.912;10.924;2023-11-19T11:42:43;5.33;;;1.10;;
3133;SDS011;1577;49.912;10.924;2023-11-19T11:50:09;2.60;;;0.80;;
3133;SDS011;1577;49.912;10.924;2023-11-19T11:58:01;3.30;;;1.30;;
3133;SDS011;1577;49.912;10.924;2023-11-19T12:00:30;1.80;;;1.00;;
3133;SDS011;1577;49.912;10.924;2023-11-19T12:03:03;2.20;;;1.20;;
3133;SDS011;1577;49.912;10.924;2023-11-19T12:05:30;6.30;;;1.40;;
3133;SDS011;1577;49.912;10.924;2023-11-19T12:08:00;1.20;;;0.90;;
3133;SDS011;1577;49.912;10.924;2023-11-19T12:10:30;3.40;;;1.40;;
3133;SDS011;1577;49.912;10.924;2023-11-19T12:13:00;2.03;;;0.80;;
3133;SDS011;1577;49.912;10.924;2023-11-19T12:15:26;2.60;;;1.07;;
3133;SDS011;1577;49.912;10.924;2023-11-19T12:17:53;4.17;;;1.50;;
3133;SDS011;1577;49.912;10.924;2023-11-19T12:20:24;1.93;;;1.20;;
3133;SDS011;1577;49.912;10.924;2023-11-19T12:22:51;4.60;;;1.37;;
3133;SDS011;1577;49.912;10.924;2023-11-19T12:25:18;4.47;;;1.47;;
3133;SDS011;1577;49.912;10.924;2023-11-19T12:27:48;2.37;;;1.40;;
3133;SDS011;1577;49.912;10.924;2023-11-19T12:32:49;2.30;;;1.37;;
3133;SDS011;1577;49.912;10.924;2023-11-19T12:35:14;3.00;;;1.17;;
3133;SDS011;1577;49.912;10.924;2023-11-19T12:37:44;2.03;;;1.20;;
3133;SDS011;1577;49.912;10.924;2023-11-19T12:40:14;3.47;;;1.67;;
3133;SDS011;1577;49.912;10.924;2023-11-19T12:42:40;5.03;;;2.33;;
3133;SDS011;1577;49.912;10.924;2023-11-19T12:45:06;6.50;;;2.73;;
3133;SDS011;1577;49.912;10.924;2023-11-19T12:47:33;3.83;;;1.63;;
3133;SDS011;1577;49.912;10.924;2023-11-19T12:49:58;5.60;;;1.40;;
3133;SDS011;1577;49.912;10.924;2023-11-19T12:52:24;3.07;;;0.87;;
3133;SDS011;1577;49.912;10.924;2023-11-19T12:54:50;2.30;;;1.10;;
3133;SDS011;1577;49.912;10.924;2023-11-19T12:57:16;2.63;;;1.80;;
3133;SDS011;1577;49.912;10.924;2023-11-19T12:59:53;4.23;;;1.13;;
3133;SDS011;1577;49.912;10.924;2023-11-19T13:02:20;2.23;;;1.00;;
3133;SDS011;1577;49.912;10.924;2023-11-19T13:04:46;6.00;;;1.83;;
3133;SDS011;1577;49.912;10.924;2023-11-19T13:07:12;4.27;;;1.90;;
3133;SDS011;1577;49.912;10.924;2023-11-19T13:09:38;2.60;;;1.50;;
3133;SDS011;1577;49.912;10.924;2023-11-19T13:12:13;3.23;;;1.80;;
3133;SDS011;1577;49.912;10.924;2023-11-19T13:14:40;2.37;;;1.43;;
3133;SDS011;1577;49.912;10.924;2023-11-19T13:17:07;8.90;;;2.37;;
3133;SDS011;1577;49.912;10.924;2023-11-19T13:19:33;5.83;;;1.80;;
3133;SDS011;1577;49.912;10.924;2023-11-19T13:21:59;3.47;;;1.20;;
3133;SDS011;1577;49.912;10.924;2023-11-19T13:24:25;5.07;;;2.27;;
3133;SDS011;1577;49.912;10.924;2023-11-19T13:26:50;7.10;;;3.70;;
3133;SDS011;1577;49.912;10.924;2023-11-19T13:29:16;6.20;;;1.60;;
3133;SDS011;1577;49.912;10.924;2023-11-19T13:31:42;6.33;;;1.57;;
3133;SDS011;1577;49.912;10.924;2023-11-19T13:34:07;3.97;;;1.63;;
3133;SDS011;1577;49.912;10.924;2023-11-19T13:36:33;2.40;;;1.20;;
3133;SDS011;1577;49.912;10.924;2023-11-19T13:38:59;4.63;;;1.43;;
3133;SDS011;1577;49.912;10.924;2023-11-19T13:41:25;5.40;;;1.67;;
3133;SDS011;1577;49.912;10.924;2023-11-19T13:43:51;4.07;;;1.50;;
3133;SDS011;1577;49.912;10.924;2023-11-19T13:46:17;4.90;;;1.53;;
3133;SDS011;1577;49.912;10.924;2023-11-19T13:48:42;6.27;;;1.40;;
3133;SDS011;1577;49.912;10.924;2023-11-19T13:51:08;4.30;;;1.20;;
3133;SDS011;1577;49.912;10.924;2023-11-19T13:53:35;4.37;;;1.27;;
3133;SDS011;1577;49.912;10.924;2023-11-19T13:56:01;4.80;;;1.57;;
3133;SDS011;1577;49.912;10.924;2023-11-19T13:58:27;4.43;;;1.17;;
3133;SDS011;1577;49.912;10.924;2023-11-19T14:00:52;4.33;;;1.40;;
3133;SDS011;1577;49.912;10.924;2023-11-19T14:03:18;4.40;;;1.40;;
3133;SDS011;1577;49.912;10.924;2023-11-19T14:05:44;8.70;;;2.10;;
3133;SDS011;1577;49.912;10.924;2023-11-19T14:08:10;4.83;;;2.30;;
3133;SDS011;1577;49.912;10.924;2023-11-19T14:10:38;3.50;;;1.90;;
3133;SDS011;1577;49.912;10.924;2023-11-19T14:13:05;6.33;;;2.20;;
3133;SDS011;1577;49.912;10.924;2023-11-19T14:15:31;8.77;;;2.63;;
3133;SDS011;1577;49.912;10.924;2023-11-19T14:17:57;5.17;;;2.07;;
3133;SDS011;1577;49.912;10.924;2023-11-19T14:20:22;6.77;;;1.73;;
3133;SDS011;1577;49.912;10.924;2023-11-19T14:22:48;2.40;;;1.57;;
3133;SDS011;1577;49.912;10.924;2023-11-19T14:25:15;5.07;;;1.60;;
3133;SDS011;1577;49.912;10.924;2023-11-19T14:27:41;4.13;;;1.57;;
3133;SDS011;1577;49.912;10.924;2023-11-19T14:30:12;5.43;;;2.17;;
3133;SDS011;1577;49.912;10.924;2023-11-19T14:32:41;7.37;;;2.03;;
3133;SDS011;1577;49.912;10.924;2023-11-19T14:35:08;8.07;;;4.80;;
3133;SDS011;1577;49.912;10.924;2023-11-19T14:37:34;3.70;;;2.20;;
3133;SDS011;1577;49.912;10.924;2023-11-19T14:40:00;4.43;;;2.20;;
3133;SDS011;1577;49.912;10.924;2023-11-19T14:42:29;4.90;;;1.70;;
3133;SDS011;1577;49.912;10.924;2023-11-19T14:44:54;4.30;;;1.60;;
3133;SDS011;1577;49.912;10.924;2023-11-19T14:47:23;3.53;;;1.50;;
3133;SDS011;1577;49.912;10.924;2023-11-19T14:49:49;4.97;;;2.13;;
3133;SDS011;1577;49.912;10.924;2023-11-19T14:52:14;3.47;;;1.57;;
3133;SDS011;1577;49.912;10.924;2023-11-19T14:54:40;3.30;;;1.87;;
3133;SDS011;1577;49.912;10.924;2023-11-19T14:57:06;6.67;;;2.00;;
3133;SDS011;1577;49.912;10.924;2023-11-19T14:59:35;2.97;;;1.90;;
3133;SDS011;1577;49.912;10.924;2023-11-19T15:02:02;5.13;;;2.33;;
3133;SDS011;1577;49.912;10.924;2023-11-19T15:04:28;2.60;;;1.47;;
3133;SDS011;1577;49.912;10.924;2023-11-19T15:06:57;5.43;;;1.30;;
3133;SDS011;1577;49.912;10.924;2023-11-19T15:09:23;2.53;;;1.10;;
3133;SDS011;1577;49.912;10.924;2023-11-19T15:11:49;5.30;;;1.60;;
3133;SDS011;1577;49.912;10.924;2023-11-19T15:14:16;3.83;;;1.63;;
3133;SDS011;1577;49.912;10.924;2023-11-19T15:16:43;4.33;;;1.90;;
3133;SDS011;1577;49.912;10.924;2023-11-19T15:19:10;2.70;;;1.30;;
3133;SDS011;1577;49.912;10.924;2023-11-19T15:21:37;4.57;;;1.60;;
3133;SDS011;1577;49.912;10.924;2023-11-19T15:24:03;5.80;;;1.73;;
3133;SDS011;1577;49.912;10.924;2023-11-19T15:26:32;6.10;;;2.17;;
3133;SDS011;1577;49.912;10.924;2023-11-19T15:29:01;3.53;;;1.63;;